createdAt,value
2023-03-05T00:00:13.782Z,62.91
2023-03-05T00:01:13.730Z,60.24
2023-03-05T00:02:14.785Z,67.61
2023-03-05T00:03:13.726Z,62.56
2023-03-05T00:04:13.685Z,68.79
2023-03-05T00:05:13.659Z,64.83
2023-03-05T00:06:13.649Z,66.28
2023-03-05T00:07:13.646Z,64.71
2023-03-05T00:08:13.602Z,67.48
2023-03-05T00:09:13.596Z,61.50
2023-03-05T00:10:13.565Z,66.99
2023-03-05T00:11:13.553Z,67.24
2023-03-05T00:12:13.554Z,62.50
2023-03-05T00:13:13.508Z,60.16
2023-03-05T00:14:13.489Z,62.96
2023-03-05T00:15:13.469Z,58.93
2023-03-05T00:16:13.458Z,62.55
2023-03-05T00:17:13.462Z,65.34
2023-03-05T00:18:13.417Z,67.46
2023-03-05T00:19:13.397Z,66.46
2023-03-05T00:20:13.407Z,62.89
2023-03-05T00:21:13.357Z,61.99
2023-03-05T00:22:13.365Z,66.94
2023-03-05T00:23:13.320Z,65.48
2023-03-05T00:24:13.301Z,67.80
2023-03-05T00:25:13.296Z,66.61
2023-03-05T00:26:13.269Z,60.72
2023-03-05T00:27:13.284Z,66.12
2023-03-05T00:28:13.254Z,62.06
2023-03-05T00:29:13.218Z,67.50
2023-03-05T00:30:13.228Z,62.86
2023-03-05T00:31:13.209Z,67.82
2023-03-05T00:32:13.225Z,62.12
2023-03-05T00:33:13.151Z,64.22
2023-03-05T00:34:13.123Z,67.41
2023-03-05T00:35:13.108Z,64.57
2023-03-05T00:36:13.087Z,67.44
2023-03-05T00:37:13.099Z,62.82
2023-03-05T00:38:13.065Z,66.27
2023-03-05T00:39:13.037Z,61.58
2023-03-05T00:40:13.045Z,62.74
2023-03-05T00:41:12.997Z,67.01
2023-03-05T00:42:13.009Z,65.12
2023-03-05T00:43:12.976Z,65.78
2023-03-05T00:44:12.942Z,64.97
2023-03-05T00:45:12.930Z,56.96
2023-03-05T00:46:12.933Z,64.53
2023-03-05T00:47:12.918Z,64.78
2023-03-05T00:48:12.879Z,66.07
2023-03-05T00:49:12.847Z,67.52
2023-03-05T00:50:12.837Z,68.07
2023-03-05T00:51:12.814Z,68.08
2023-03-05T00:52:12.829Z,69.27
2023-03-05T00:53:12.783Z,60.73
2023-03-05T00:54:12.756Z,60.87
2023-03-05T00:55:12.740Z,65.32
2023-03-05T00:56:12.724Z,67.00
2023-03-05T00:57:12.731Z,66.57
2023-03-05T00:58:12.685Z,62.28
2023-03-05T00:59:12.668Z,64.22
2023-03-05T01:00:12.642Z,65.20
2023-03-05T01:01:12.626Z,60.35
2023-03-05T01:02:12.633Z,66.52
2023-03-05T01:03:12.597Z,60.84
2023-03-05T01:04:12.567Z,67.19
2023-03-05T01:05:12.605Z,63.63
2023-03-05T01:06:12.536Z,63.89
2023-03-05T01:07:12.539Z,59.69
2023-03-05T01:08:12.486Z,57.76
2023-03-05T01:09:12.464Z,58.33
2023-03-05T01:10:12.446Z,61.51
2023-03-05T01:11:12.426Z,60.70
2023-03-05T01:12:12.476Z,68.95
2023-03-05T01:13:12.389Z,64.58
2023-03-05T01:14:12.372Z,64.42
2023-03-05T01:15:12.350Z,63.29
2023-03-05T01:16:12.377Z,65.17
2023-03-05T01:17:12.346Z,65.58
2023-03-05T01:18:12.294Z,67.69
2023-03-05T01:19:12.274Z,65.70
2023-03-05T01:20:12.251Z,65.76
2023-03-05T01:21:12.264Z,68.75
2023-03-05T01:22:12.249Z,68.64
2023-03-05T01:23:12.195Z,68.25
2023-03-05T01:24:12.175Z,65.73
2023-03-05T01:25:12.157Z,61.83
2023-03-05T01:26:12.144Z,68.52
2023-03-05T01:27:12.140Z,65.96
2023-03-05T01:28:12.127Z,67.08
2023-03-05T01:29:12.080Z,69.16
2023-03-05T01:30:12.069Z,64.98
2023-03-05T01:31:12.056Z,66.55
2023-03-05T01:32:12.056Z,62.00
2023-03-05T01:33:12.037Z,65.08
2023-03-05T01:34:11.985Z,65.79
2023-03-05T01:35:11.964Z,64.89
2023-03-05T01:36:11.946Z,60.91
2023-03-05T01:37:11.949Z,64.93
2023-03-05T01:38:11.935Z,65.30
2023-03-05T01:39:11.895Z,52.29
2023-03-05T01:40:11.886Z,59.82
2023-03-05T01:41:11.859Z,61.66
2023-03-05T01:42:11.830Z,67.66
2023-03-05T01:43:11.856Z,67.20
2023-03-05T01:44:11.794Z,66.21
2023-03-05T01:45:11.785Z,63.04
2023-03-05T01:46:11.828Z,61.97
2023-03-05T01:47:11.739Z,60.75
2023-03-05T01:48:11.757Z,55.39
2023-03-05T01:49:11.700Z,69.13
2023-03-05T01:50:11.688Z,63.68
2023-03-05T01:51:11.802Z,60.02
2023-03-05T01:52:11.662Z,65.60
2023-03-05T01:53:11.652Z,64.29
2023-03-05T01:54:11.629Z,66.01
2023-03-05T01:55:11.648Z,62.25
2023-03-05T01:56:11.573Z,62.73
2023-03-05T01:57:11.569Z,62.56
2023-03-05T01:58:11.612Z,61.79
2023-03-05T01:59:11.512Z,64.97
2023-03-05T02:00:11.529Z,66.16
2023-03-05T02:01:11.668Z,58.19
2023-03-05T02:02:11.473Z,59.64
2023-03-05T02:03:11.471Z,66.86
2023-03-05T02:04:11.466Z,63.87
2023-03-05T02:05:11.436Z,61.28
2023-03-05T02:06:11.388Z,65.53
2023-03-05T02:07:11.372Z,65.07
2023-03-05T02:08:11.489Z,61.61
2023-03-05T02:09:11.332Z,65.62
2023-03-05T02:10:11.318Z,61.68
2023-03-05T02:11:11.301Z,61.84
2023-03-05T02:12:11.305Z,62.56
2023-03-05T02:13:11.305Z,67.19
2023-03-05T02:14:11.326Z,69.04
2023-03-05T02:15:11.234Z,66.22
2023-03-05T02:16:11.252Z,64.37
2023-03-05T02:17:11.193Z,62.92
2023-03-05T02:18:11.212Z,59.50
2023-03-05T02:19:11.159Z,60.17
2023-03-05T02:20:11.134Z,54.70
2023-03-05T02:21:11.116Z,63.45
2023-03-05T02:22:11.103Z,57.56
2023-03-05T02:23:11.114Z,59.26
2023-03-05T02:24:11.062Z,64.16
2023-03-05T02:25:11.071Z,62.02
2023-03-05T02:26:11.036Z,65.30
2023-03-05T02:27:11.023Z,64.75
2023-03-05T02:28:11.023Z,66.27
2023-03-05T02:29:10.992Z,62.06
2023-03-05T02:30:11.095Z,58.43
2023-03-05T02:31:10.931Z,54.39
2023-03-05T02:32:11.067Z,60.43
2023-03-05T02:33:10.939Z,57.18
2023-03-05T02:34:10.891Z,64.60
2023-03-05T02:35:10.861Z,62.09
2023-03-05T02:36:10.843Z,64.91
2023-03-05T02:37:10.863Z,66.78
2023-03-05T02:38:10.834Z,64.40
2023-03-05T02:39:10.787Z,65.36
2023-03-05T02:40:10.770Z,57.64
2023-03-05T02:41:10.768Z,65.90
2023-03-05T02:42:10.744Z,63.04
2023-03-05T02:43:10.741Z,58.37
2023-03-05T02:44:10.694Z,58.39
2023-03-05T02:45:10.676Z,65.41
2023-03-05T02:46:10.740Z,62.61
2023-03-05T02:47:10.640Z,58.20
2023-03-05T02:48:10.670Z,64.12
2023-03-05T02:49:10.601Z,63.93
2023-03-05T02:50:10.589Z,59.65
2023-03-05T02:51:10.565Z,58.03
2023-03-05T02:52:10.559Z,61.05
2023-03-05T02:53:10.559Z,62.38
2023-03-05T02:54:10.517Z,63.98
2023-03-05T02:55:10.492Z,64.64
2023-03-05T02:56:10.475Z,59.77
2023-03-05T02:57:10.453Z,60.06
2023-03-05T02:58:10.465Z,62.76
2023-03-05T02:59:10.436Z,66.48
2023-03-05T03:00:10.566Z,66.64
2023-03-05T03:01:10.515Z,62.74
2023-03-05T03:02:10.358Z,66.51
2023-03-05T03:03:10.408Z,59.57
2023-03-05T03:04:10.328Z,59.11
2023-03-05T03:05:10.318Z,61.22
2023-03-05T03:06:10.286Z,61.11
2023-03-05T03:07:10.275Z,52.94
2023-03-05T03:08:10.278Z,54.46
2023-03-05T03:09:10.230Z,61.50
2023-03-05T03:10:10.225Z,63.42
2023-03-05T03:11:10.193Z,62.08
2023-03-05T03:12:10.174Z,56.36
2023-03-05T03:13:10.188Z,63.75
2023-03-05T03:14:10.143Z,65.32
2023-03-05T03:15:10.130Z,62.10
2023-03-05T03:16:10.100Z,65.27
2023-03-05T03:17:10.172Z,63.55
2023-03-05T03:18:10.173Z,66.81
2023-03-05T03:19:10.107Z,64.46
2023-03-05T03:20:10.032Z,64.79
2023-03-05T03:21:10.015Z,67.56
2023-03-05T03:22:10.059Z,63.79
2023-03-05T03:23:10.010Z,64.97
2023-03-05T03:24:09.950Z,61.43
2023-03-05T03:25:12.616Z,59.21
2023-03-05T03:26:09.954Z,60.37
2023-03-05T03:27:09.911Z,55.86
2023-03-05T03:28:10.062Z,59.29
2023-03-05T03:29:09.897Z,58.46
2023-03-05T03:30:09.844Z,64.26
2023-03-05T03:31:09.850Z,62.50
2023-03-05T03:32:09.820Z,66.40
2023-03-05T03:33:09.816Z,67.69
2023-03-05T03:34:09.768Z,60.88
2023-03-05T03:35:09.753Z,69.66
2023-03-05T03:36:09.738Z,57.20
2023-03-05T03:37:09.715Z,57.89
2023-03-05T03:38:09.728Z,63.39
2023-03-05T03:39:09.676Z,62.51
2023-03-05T03:40:09.655Z,63.10
2023-03-05T03:41:09.660Z,63.70
2023-03-05T03:42:09.623Z,63.05
2023-03-05T03:43:09.628Z,59.45
2023-03-05T03:44:09.599Z,65.00
2023-03-05T03:45:09.565Z,63.68
2023-03-05T03:46:09.606Z,64.79
2023-03-05T03:47:09.536Z,63.26
2023-03-05T03:48:09.538Z,56.63
2023-03-05T03:49:09.527Z,63.43
2023-03-05T03:50:09.473Z,63.10
2023-03-05T03:51:09.457Z,62.16
2023-03-05T03:52:09.434Z,53.84
2023-03-05T03:53:09.454Z,61.19
2023-03-05T03:54:09.400Z,61.05
2023-03-05T03:55:09.389Z,63.54
2023-03-05T03:56:09.366Z,63.70
2023-03-05T03:57:09.348Z,63.57
2023-03-05T03:58:09.361Z,60.65
2023-03-05T03:59:09.309Z,63.68
2023-03-05T04:00:09.300Z,62.46
2023-03-05T04:01:09.273Z,66.52
2023-03-05T04:02:09.344Z,66.85
2023-03-05T04:03:09.271Z,60.76
2023-03-05T04:04:09.247Z,64.54
2023-03-05T04:05:09.202Z,64.12
2023-03-05T04:06:09.184Z,64.84
2023-03-05T04:07:09.163Z,67.41
2023-03-05T04:08:09.173Z,62.25
2023-03-05T04:09:09.123Z,62.82
2023-03-05T04:10:09.110Z,68.14
2023-03-05T04:11:09.094Z,65.26
2023-03-05T04:12:09.071Z,57.54
2023-03-05T04:13:09.076Z,61.25
2023-03-05T04:14:09.050Z,61.91
2023-03-05T04:15:09.013Z,67.43
2023-03-05T04:16:09.059Z,67.03
2023-03-05T04:17:08.978Z,67.54
2023-03-05T04:18:08.993Z,65.63
2023-03-05T04:19:08.937Z,62.43
2023-03-05T04:20:08.931Z,61.78
2023-03-05T04:21:08.903Z,64.82
2023-03-05T04:22:08.882Z,60.60
2023-03-05T04:23:08.913Z,59.13
2023-03-05T04:24:09.483Z,65.61
2023-03-05T04:25:08.852Z,64.70
2023-03-05T04:26:08.825Z,64.48
2023-03-05T04:27:08.821Z,66.18
2023-03-05T04:28:08.815Z,60.29
2023-03-05T04:29:08.768Z,61.01
2023-03-05T04:30:08.747Z,63.71
2023-03-05T04:31:08.767Z,66.37
2023-03-05T04:32:08.784Z,66.64
2023-03-05T04:33:08.723Z,64.99
2023-03-05T04:34:08.670Z,68.95
2023-03-05T04:35:08.651Z,59.09
2023-03-05T04:36:08.638Z,64.69
2023-03-05T04:37:08.609Z,69.08
2023-03-05T04:38:08.621Z,69.82
2023-03-05T04:39:08.574Z,63.13
2023-03-05T04:40:09.559Z,66.60
2023-03-05T04:41:08.536Z,63.47
2023-03-05T04:42:08.529Z,67.15
2023-03-05T04:43:08.532Z,60.46
2023-03-05T04:44:08.483Z,65.12
2023-03-05T04:45:08.474Z,61.88
2023-03-05T04:46:08.498Z,63.89
2023-03-05T04:47:08.430Z,66.76
2023-03-05T04:48:08.440Z,67.86
2023-03-05T04:49:08.399Z,67.73
2023-03-05T04:50:08.369Z,67.87
2023-03-05T04:51:08.358Z,67.54
2023-03-05T04:52:08.349Z,57.59
2023-03-05T04:53:08.346Z,66.35
2023-03-05T04:54:08.299Z,64.62
2023-03-05T04:55:08.292Z,67.50
2023-03-05T04:56:08.269Z,66.21
2023-03-05T04:57:08.256Z,64.29
2023-03-05T04:58:08.257Z,66.34
2023-03-05T04:59:08.227Z,65.77
2023-03-05T05:00:08.198Z,65.75
2023-03-05T05:01:08.174Z,59.29
2023-03-05T05:02:08.153Z,63.98
2023-03-05T05:03:08.237Z,64.18
2023-03-05T05:04:08.116Z,65.33
2023-03-05T05:05:08.117Z,66.06
2023-03-05T05:06:08.114Z,63.62
2023-03-05T05:07:08.073Z,64.85
2023-03-05T05:08:08.079Z,66.11
2023-03-05T05:09:08.031Z,69.16
2023-03-05T05:10:08.030Z,67.06
2023-03-05T05:11:08.012Z,66.40
2023-03-05T05:12:08.009Z,69.39
2023-03-05T05:13:07.996Z,67.15
2023-03-05T05:14:07.945Z,66.98
2023-03-05T05:15:07.922Z,67.42
2023-03-05T05:16:08.043Z,69.87
2023-03-05T05:17:07.880Z,70.62
2023-03-05T05:18:07.949Z,60.73
2023-03-05T05:19:07.933Z,61.01
2023-03-05T05:20:07.830Z,62.07
2023-03-05T05:21:08.585Z,67.22
2023-03-05T05:22:07.815Z,68.29
2023-03-05T05:23:07.801Z,64.69
2023-03-05T05:24:07.756Z,65.20
2023-03-05T05:25:07.736Z,67.09
2023-03-05T05:26:07.715Z,71.28
2023-03-05T05:27:07.697Z,67.06
2023-03-05T05:28:07.719Z,67.87
2023-03-05T05:29:07.658Z,66.49
2023-03-05T05:30:07.653Z,59.41
2023-03-05T05:31:07.708Z,67.73
2023-03-05T05:32:07.649Z,64.79
2023-03-05T05:33:07.614Z,65.23
2023-03-05T05:34:08.600Z,67.53
2023-03-05T05:35:07.550Z,67.19
2023-03-05T05:36:07.537Z,66.50
2023-03-05T05:37:07.511Z,66.82
2023-03-05T05:38:07.511Z,66.30
2023-03-05T05:39:07.514Z,65.54
2023-03-05T05:40:07.481Z,66.93
2023-03-05T05:41:07.442Z,67.06
2023-03-05T05:42:07.426Z,69.38
2023-03-05T05:43:07.403Z,67.87
2023-03-05T05:44:07.420Z,64.31
2023-03-05T05:45:07.422Z,67.15
2023-03-05T05:46:07.414Z,66.72
2023-03-05T05:47:07.331Z,68.66
2023-03-05T05:48:07.311Z,64.57
2023-03-05T05:49:07.324Z,63.32
2023-03-05T05:50:07.278Z,64.78
2023-03-05T05:51:07.257Z,66.15
2023-03-05T05:52:07.234Z,68.42
2023-03-05T05:53:07.212Z,63.38
2023-03-05T05:54:07.230Z,62.96
2023-03-05T05:55:07.185Z,66.16
2023-03-05T05:56:07.158Z,69.52
2023-03-05T05:57:07.149Z,66.88
2023-03-05T05:58:07.138Z,68.62
2023-03-05T05:59:07.135Z,64.53
2023-03-05T06:00:07.083Z,63.87
2023-03-05T06:01:07.105Z,66.95
2023-03-05T06:02:07.145Z,68.70
2023-03-05T06:03:07.085Z,64.61
2023-03-05T06:04:07.053Z,68.13
2023-03-05T06:05:06.995Z,70.15
2023-03-05T06:06:07.006Z,71.10
2023-03-05T06:07:06.961Z,67.01
2023-03-05T06:08:06.939Z,71.17
2023-03-05T06:09:06.948Z,71.86
2023-03-05T06:10:06.924Z,69.30
2023-03-05T06:11:06.886Z,71.24
2023-03-05T06:12:06.877Z,72.00
2023-03-05T06:13:06.846Z,70.11
2023-03-05T06:14:06.876Z,67.67
2023-03-05T06:15:06.818Z,69.63
2023-03-05T06:16:06.842Z,66.24
2023-03-05T06:17:06.776Z,70.44
2023-03-05T06:18:06.775Z,72.39
2023-03-05T06:19:06.771Z,69.91
2023-03-05T06:20:06.737Z,68.84
2023-03-05T06:21:06.713Z,70.18
2023-03-05T06:22:06.692Z,70.49
2023-03-05T06:23:06.670Z,70.55
2023-03-05T06:24:06.683Z,72.10
2023-03-05T06:25:06.634Z,68.13
2023-03-05T06:26:06.621Z,68.32
2023-03-05T06:27:06.601Z,67.65
2023-03-05T06:28:06.589Z,70.70
2023-03-05T06:29:06.601Z,70.02
2023-03-05T06:30:06.551Z,65.56
2023-03-05T06:31:06.610Z,65.99
2023-03-05T06:32:06.542Z,70.01
2023-03-05T06:33:06.579Z,67.93
2023-03-05T06:34:06.514Z,67.96
2023-03-05T06:35:06.465Z,71.42
2023-03-05T06:36:06.436Z,71.43
2023-03-05T06:37:06.440Z,69.34
2023-03-05T06:38:06.401Z,71.16
2023-03-05T06:39:06.404Z,70.72
2023-03-05T06:40:06.421Z,71.37
2023-03-05T06:41:06.356Z,70.44
2023-03-05T06:42:06.353Z,71.56
2023-03-05T06:43:06.303Z,70.38
2023-03-05T06:44:06.350Z,69.48
2023-03-05T06:45:06.286Z,70.50
2023-03-05T06:46:06.339Z,66.58
2023-03-05T06:47:06.234Z,69.23
2023-03-05T06:48:06.216Z,70.11
2023-03-05T06:49:06.234Z,70.84
2023-03-05T06:50:06.178Z,72.22
2023-03-05T06:51:06.156Z,72.01
2023-03-05T06:52:06.155Z,71.11
2023-03-05T06:53:06.120Z,71.03
2023-03-05T06:54:06.146Z,69.57
2023-03-05T06:55:06.112Z,70.42
2023-03-05T06:56:06.066Z,70.46
2023-03-05T06:57:06.051Z,71.95
2023-03-05T06:58:06.264Z,73.09
2023-03-05T06:59:06.063Z,72.54
2023-03-05T07:00:06.021Z,72.49
2023-03-05T07:01:06.029Z,70.06
2023-03-05T07:02:05.981Z,73.23
2023-03-05T07:03:06.065Z,71.21
2023-03-05T07:04:05.946Z,71.47
2023-03-05T07:05:05.904Z,71.17
2023-03-05T07:06:05.876Z,71.40
2023-03-05T07:07:05.870Z,70.97
2023-03-05T07:08:05.847Z,70.53
2023-03-05T07:09:05.876Z,65.25
2023-03-05T07:10:05.806Z,71.07
2023-03-05T07:11:05.785Z,72.56
2023-03-05T07:12:05.767Z,70.80
2023-03-05T07:13:05.741Z,70.02
2023-03-05T07:14:05.760Z,72.01
2023-03-05T07:15:05.730Z,70.43
2023-03-05T07:16:05.776Z,70.53
2023-03-05T07:17:06.554Z,73.04
2023-03-05T07:18:05.758Z,70.19
2023-03-05T07:19:05.664Z,72.17
2023-03-05T07:20:05.612Z,72.11
2023-03-05T07:21:05.646Z,70.47
2023-03-05T07:22:05.579Z,72.45
2023-03-05T07:23:05.593Z,72.97
2023-03-05T07:24:05.589Z,72.36
2023-03-05T07:25:05.530Z,69.79
2023-03-05T07:26:05.502Z,70.62
2023-03-05T07:27:05.476Z,71.67
2023-03-05T07:28:05.472Z,72.09
2023-03-05T07:29:05.506Z,70.32
2023-03-05T07:30:05.436Z,73.24
2023-03-05T07:31:05.433Z,73.24
2023-03-05T07:32:05.400Z,72.09
2023-03-05T07:33:05.431Z,72.65
2023-03-05T07:34:05.379Z,72.65
2023-03-05T07:35:05.338Z,70.38
2023-03-05T07:36:05.311Z,71.13
2023-03-05T07:37:05.293Z,70.70
2023-03-05T07:38:05.274Z,72.02
2023-03-05T07:39:05.290Z,69.47
2023-03-05T07:40:05.244Z,70.05
2023-03-05T07:41:05.338Z,71.76
2023-03-05T07:42:05.234Z,73.56
2023-03-05T07:43:05.190Z,71.07
2023-03-05T07:44:05.208Z,70.54
2023-03-05T07:45:05.210Z,72.63
2023-03-05T07:46:05.241Z,71.26
2023-03-05T07:47:05.109Z,71.95
2023-03-05T07:48:05.107Z,71.78
2023-03-05T07:49:05.102Z,71.93
2023-03-05T07:50:05.060Z,69.97
2023-03-05T07:51:05.055Z,70.57
2023-03-05T07:52:05.018Z,71.42
2023-03-05T07:53:04.995Z,73.04
2023-03-05T07:54:05.033Z,71.12
2023-03-05T07:55:04.952Z,72.05
2023-03-05T07:56:04.934Z,71.99
2023-03-05T07:57:04.920Z,71.47
2023-03-05T07:58:04.913Z,71.69
2023-03-05T07:59:04.892Z,71.79
2023-03-05T08:00:04.980Z,70.66
2023-03-05T08:01:04.844Z,71.62
2023-03-05T08:02:04.839Z,72.22
2023-03-05T08:03:04.808Z,73.10
2023-03-05T08:04:04.790Z,71.62
2023-03-05T08:05:05.263Z,72.79
2023-03-05T08:06:04.749Z,72.37
2023-03-05T08:07:04.736Z,73.21
2023-03-05T08:08:04.715Z,74.12
2023-03-05T08:09:04.695Z,74.70
2023-03-05T08:10:05.698Z,72.99
2023-03-05T08:11:05.684Z,72.63
2023-03-05T08:12:04.643Z,74.20
2023-03-05T08:13:04.630Z,72.53
2023-03-05T08:14:04.614Z,75.37
2023-03-05T08:15:04.624Z,72.06
2023-03-05T08:16:04.709Z,72.15
2023-03-05T08:17:04.554Z,72.02
2023-03-05T08:18:04.541Z,73.13
2023-03-05T08:19:04.520Z,71.22
2023-03-05T08:20:04.547Z,73.54
2023-03-05T08:21:04.483Z,75.38
2023-03-05T08:22:04.463Z,74.20
2023-03-05T08:23:04.449Z,72.25
2023-03-05T08:24:04.456Z,73.73
2023-03-05T08:25:04.447Z,72.87
2023-03-05T08:26:04.387Z,72.54
2023-03-05T08:27:04.372Z,72.49
2023-03-05T08:28:04.351Z,71.97
2023-03-05T08:29:04.329Z,72.89
2023-03-05T08:30:04.347Z,73.74
2023-03-05T08:31:04.367Z,72.87
2023-03-05T08:32:05.310Z,71.73
2023-03-05T08:33:04.264Z,72.68
2023-03-05T08:34:04.243Z,75.19
2023-03-05T08:35:04.250Z,73.61
2023-03-05T08:36:04.205Z,73.81
2023-03-05T08:37:04.211Z,75.13
2023-03-05T08:38:04.169Z,74.64
2023-03-05T08:39:04.150Z,75.25
2023-03-05T08:40:05.131Z,75.44
2023-03-05T08:41:04.124Z,76.18
2023-03-05T08:42:04.099Z,73.81
2023-03-05T08:43:04.076Z,75.03
2023-03-05T08:44:04.062Z,74.98
2023-03-05T08:45:04.081Z,74.11
2023-03-05T08:46:04.022Z,74.69
2023-03-05T08:47:03.998Z,74.16
2023-03-05T08:48:04.012Z,74.87
2023-03-05T08:49:04.540Z,74.22
2023-03-05T08:50:03.982Z,75.18
2023-03-05T08:51:03.948Z,74.39
2023-03-05T08:52:03.926Z,72.95
2023-03-05T08:53:03.913Z,73.54
2023-03-05T08:54:03.874Z,75.62
2023-03-05T08:55:03.888Z,74.67
2023-03-05T08:56:03.850Z,73.06
2023-03-05T08:57:03.836Z,75.68
2023-03-05T08:58:03.811Z,71.00
2023-03-05T08:59:03.783Z,74.78
2023-03-05T09:00:03.813Z,73.77
2023-03-05T09:01:03.765Z,74.74
2023-03-05T09:02:03.792Z,75.35
2023-03-05T09:03:03.813Z,74.87
2023-03-05T09:04:03.692Z,75.23
2023-03-05T09:05:03.734Z,72.71
2023-03-05T09:06:03.659Z,72.72
2023-03-05T09:07:03.639Z,75.12
2023-03-05T09:08:03.619Z,73.26
2023-03-05T09:09:03.604Z,75.07
2023-03-05T09:10:03.642Z,72.34
2023-03-05T09:11:03.567Z,75.87
2023-03-05T09:12:04.414Z,76.20
2023-03-05T09:13:03.540Z,74.79
2023-03-05T09:14:03.523Z,74.09
2023-03-05T09:15:03.543Z,74.42
2023-03-05T09:16:03.497Z,72.90
2023-03-05T09:17:03.466Z,73.21
2023-03-05T09:18:03.434Z,75.23
2023-03-05T09:19:03.459Z,75.60
2023-03-05T09:20:03.431Z,74.13
2023-03-05T09:21:03.370Z,74.45
2023-03-05T09:22:03.355Z,73.14
2023-03-05T09:23:03.341Z,74.19
2023-03-05T09:24:03.329Z,74.48
2023-03-05T09:25:03.363Z,74.45
2023-03-05T09:26:03.293Z,74.68
2023-03-05T09:27:03.270Z,74.28
2023-03-05T09:28:03.254Z,74.15
2023-03-05T09:29:03.246Z,75.13
2023-03-05T09:30:03.235Z,75.32
2023-03-05T09:31:03.196Z,74.21
2023-03-05T09:32:03.372Z,73.78
2023-03-05T09:33:03.155Z,73.10
2023-03-05T09:34:03.176Z,71.96
2023-03-05T09:35:03.152Z,75.42
2023-03-05T09:36:03.098Z,75.23
2023-03-05T09:37:03.080Z,73.39
2023-03-05T09:38:03.059Z,73.62
2023-03-05T09:39:03.042Z,74.41
2023-03-05T09:40:03.056Z,74.44
2023-03-05T09:41:03.008Z,74.29
2023-03-05T09:42:02.987Z,75.36
2023-03-05T09:43:02.967Z,73.86
2023-03-05T09:44:02.946Z,75.23
2023-03-05T09:45:03.003Z,76.36
2023-03-05T09:46:03.190Z,74.65
2023-03-05T09:47:02.885Z,75.27
2023-03-05T09:48:02.877Z,74.18
2023-03-05T09:49:02.853Z,75.29
2023-03-05T09:50:02.874Z,75.15
2023-03-05T09:51:02.851Z,75.58
2023-03-05T09:52:02.794Z,75.80
2023-03-05T09:53:02.777Z,74.03
2023-03-05T09:54:03.200Z,74.53
2023-03-05T09:55:03.774Z,76.38
2023-03-05T09:56:02.749Z,77.60
2023-03-05T09:57:02.700Z,75.19
2023-03-05T09:58:03.517Z,75.76
2023-03-05T09:59:02.677Z,76.31
2023-03-05T10:00:52.559Z,76.35
2023-03-05T10:01:02.649Z,73.58
2023-03-05T10:02:53.519Z,75.62
2023-03-05T10:03:02.704Z,73.59
2023-03-05T10:04:55.982Z,74.97
2023-03-05T10:05:02.616Z,75.52
2023-03-05T10:06:02.568Z,76.73
2023-03-05T10:07:02.553Z,75.17
2023-03-05T10:08:02.540Z,75.83
2023-03-05T10:09:02.508Z,75.59
2023-03-05T10:10:02.537Z,75.49
2023-03-05T10:11:02.494Z,76.06
2023-03-05T10:12:02.471Z,76.27
2023-03-05T10:13:02.454Z,75.08
2023-03-05T10:14:02.412Z,77.73
2023-03-05T10:15:03.461Z,74.04
2023-03-05T10:16:02.404Z,74.68
2023-03-05T10:17:02.380Z,76.55
2023-03-05T10:18:02.372Z,76.07
2023-03-05T10:19:02.345Z,76.79
2023-03-05T10:20:02.360Z,76.57
2023-03-05T10:21:02.294Z,77.16
2023-03-05T10:22:02.301Z,75.07
2023-03-05T10:23:02.247Z,75.23
2023-03-05T10:24:02.258Z,75.33
2023-03-05T10:25:02.222Z,76.56
2023-03-05T10:26:02.237Z,76.37
2023-03-05T10:27:02.385Z,76.41
2023-03-05T10:28:02.168Z,76.51
2023-03-05T10:29:02.141Z,76.41
2023-03-05T10:30:02.132Z,75.29
2023-03-05T10:31:02.154Z,74.73
2023-03-05T10:32:02.226Z,74.57
2023-03-05T10:33:02.094Z,75.31
2023-03-05T10:34:02.062Z,75.22
2023-03-05T10:35:02.065Z,78.07
2023-03-05T10:36:02.049Z,76.19
2023-03-05T10:37:02.017Z,74.96
2023-03-05T10:38:01.996Z,76.71
2023-03-05T10:39:01.995Z,76.00
2023-03-05T10:40:01.946Z,76.75
2023-03-05T10:41:01.972Z,75.78
2023-03-05T10:42:01.921Z,75.26
2023-03-05T10:43:01.886Z,74.54
2023-03-05T10:44:01.872Z,74.55
2023-03-05T10:45:01.861Z,74.38
2023-03-05T10:46:01.931Z,77.53
2023-03-05T10:47:01.847Z,78.12
2023-03-05T10:48:01.795Z,76.19
2023-03-05T10:49:01.780Z,75.20
2023-03-05T10:50:01.755Z,75.15
2023-03-05T10:51:01.773Z,74.38
2023-03-05T10:52:01.746Z,74.17
2023-03-05T10:53:01.707Z,75.81
2023-03-05T10:54:01.677Z,76.24
2023-03-05T10:55:01.679Z,74.98
2023-03-05T10:56:01.674Z,75.72
2023-03-05T10:57:01.652Z,73.51
2023-03-05T10:58:01.603Z,75.68
2023-03-05T10:59:01.602Z,75.68
2023-03-05T11:00:01.575Z,76.05
2023-03-05T11:01:01.653Z,75.68
2023-03-05T11:02:01.556Z,75.13
2023-03-05T11:03:01.539Z,74.88
2023-03-05T11:04:01.504Z,75.05
2023-03-05T11:05:01.818Z,72.67
2023-03-05T11:06:01.492Z,74.50
2023-03-05T11:07:01.438Z,75.77
2023-03-05T11:08:01.433Z,75.10
2023-03-05T11:09:01.411Z,77.76
2023-03-05T11:10:01.384Z,75.13
2023-03-05T11:11:03.773Z,73.10
2023-03-05T11:12:01.346Z,75.72
2023-03-05T11:13:01.339Z,75.53
2023-03-05T11:14:01.321Z,73.68
2023-03-05T11:15:01.293Z,74.35
2023-03-05T11:16:01.375Z,76.23
2023-03-05T11:17:01.259Z,75.46
2023-03-05T11:18:01.261Z,75.70
2023-03-05T11:19:01.218Z,74.23
2023-03-05T11:20:01.209Z,74.07
2023-03-05T11:21:01.222Z,75.15
2023-03-05T11:22:01.186Z,75.45
2023-03-05T11:23:01.146Z,76.02
2023-03-05T11:24:01.132Z,74.67
2023-03-05T11:25:01.125Z,75.20
2023-03-05T11:26:01.200Z,74.29
2023-03-05T11:27:01.071Z,75.48
2023-03-05T11:28:01.076Z,74.99
2023-03-05T11:29:01.049Z,75.54
2023-03-05T11:30:01.033Z,72.97
2023-03-05T11:31:01.092Z,73.48
2023-03-05T11:32:01.022Z,76.12
2023-03-05T11:33:00.977Z,74.48
2023-03-05T11:34:00.973Z,75.70
2023-03-05T11:35:00.947Z,74.00
2023-03-05T11:36:01.005Z,75.06
2023-03-05T11:37:00.902Z,73.99
2023-03-05T11:38:00.881Z,75.40
2023-03-05T11:39:00.856Z,75.61
2023-03-05T11:40:00.851Z,76.55
2023-03-05T11:41:00.866Z,74.63
2023-03-05T11:42:00.803Z,75.65
2023-03-05T11:43:00.787Z,76.07
2023-03-05T11:44:00.769Z,75.18
2023-03-05T11:45:00.746Z,75.91
2023-03-05T11:46:00.812Z,75.61
2023-03-05T11:47:00.725Z,74.68
2023-03-05T11:48:00.722Z,75.91
2023-03-05T11:49:00.682Z,75.75
2023-03-05T11:50:00.673Z,76.23
2023-03-05T11:51:00.684Z,74.56
2023-03-05T11:52:00.645Z,73.51
2023-03-05T11:53:00.600Z,74.26
2023-03-05T11:54:00.581Z,74.16
2023-03-05T11:55:00.571Z,71.88
2023-03-05T11:56:00.587Z,73.12
2023-03-05T11:57:00.542Z,75.61
2023-03-05T11:58:00.523Z,75.71
2023-03-05T11:59:00.488Z,73.72
2023-03-05T12:00:00.507Z,73.41
2023-03-05T12:01:00.489Z,75.25
2023-03-05T12:02:00.440Z,74.71
2023-03-05T12:03:00.516Z,74.26
2023-03-05T12:04:00.477Z,75.39
2023-03-05T12:05:00.386Z,77.79
2023-03-05T12:06:00.390Z,76.27
2023-03-05T12:07:00.347Z,75.01
2023-03-05T12:08:00.333Z,75.22
2023-03-05T12:09:00.316Z,74.47
2023-03-05T12:10:00.300Z,73.07
2023-03-05T12:11:00.311Z,74.14
2023-03-05T12:12:00.261Z,74.38
2023-03-05T12:13:00.246Z,74.69
2023-03-05T12:14:00.226Z,74.76
2023-03-05T12:15:00.212Z,74.78
2023-03-05T12:16:00.262Z,74.66
2023-03-05T12:17:00.179Z,74.62
2023-03-05T12:18:00.153Z,75.50
2023-03-05T12:19:00.157Z,77.06
2023-03-05T12:20:00.175Z,75.50
2023-03-05T12:21:00.132Z,74.36
2023-03-05T12:22:00.107Z,74.80
2023-03-05T12:23:00.070Z,73.68
2023-03-05T12:24:00.048Z,75.12
2023-03-05T12:25:00.035Z,73.65
2023-03-05T12:26:01.047Z,74.71
2023-03-05T12:27:00.001Z,74.38
2023-03-05T12:27:59.985Z,74.11
2023-03-05T12:29:00.058Z,73.79
2023-03-05T12:29:59.946Z,73.09
2023-03-05T12:31:00.002Z,74.05
2023-03-05T12:31:59.925Z,72.41
2023-03-05T12:33:00.547Z,72.18
2023-03-05T12:33:59.879Z,73.63
2023-03-05T12:34:59.861Z,73.15
2023-03-05T12:35:59.905Z,75.67
2023-03-05T12:36:59.813Z,73.73
2023-03-05T12:37:59.805Z,75.89
2023-03-05T12:38:59.812Z,77.20
2023-03-05T12:39:59.771Z,74.16
2023-03-05T12:40:59.781Z,74.83
2023-03-05T12:41:59.741Z,75.65
2023-03-05T12:42:59.716Z,75.55
2023-03-05T12:43:59.700Z,75.95
2023-03-05T12:44:59.682Z,75.14
2023-03-05T12:45:59.693Z,74.06
2023-03-05T12:46:59.687Z,75.19
2023-03-05T12:47:59.645Z,74.66
2023-03-05T12:48:59.614Z,74.51
2023-03-05T12:49:59.606Z,75.83
2023-03-05T12:50:59.610Z,76.27
2023-03-05T12:51:59.565Z,76.19